createdAt,value
2019-01-26T00:00:33.954Z,2.90
2019-01-26T00:02:59.986Z,2.90
2019-01-26T00:05:26.001Z,3.00
2019-01-26T00:07:52.032Z,3.00
2019-01-26T00:10:18.090Z,3.00
2019-01-26T00:12:44.123Z,3.10
2019-01-26T00:15:10.156Z,3.10
2019-01-26T00:17:36.178Z,3.10
2019-01-26T00:20:07.600Z,3.20
2019-01-26T00:22:36.705Z,3.20
2019-01-26T00:25:03.715Z,3.20
2019-01-26T00:27:29.735Z,3.20
2019-01-26T00:29:55.746Z,3.20
2019-01-26T00:32:21.779Z,3.20
2019-01-26T00:34:47.915Z,3.20
2019-01-26T00:37:13.999Z,3.20
2019-01-26T00:39:39.998Z,3.20
2019-01-26T00:42:06.027Z,3.30
2019-01-26T00:44:32.060Z,3.30
2019-01-26T00:46:58.098Z,3.40
2019-01-26T00:49:24.123Z,3.40
2019-01-26T00:51:50.136Z,3.40
2019-01-26T00:54:16.155Z,3.30
2019-01-26T00:56:42.170Z,3.30
2019-01-26T00:59:08.247Z,3.20
2019-01-26T01:01:34.322Z,3.10
2019-01-26T01:04:00.355Z,3.00
2019-01-26T01:06:26.397Z,3.10
2019-01-26T01:08:52.499Z,3.00
2019-01-26T01:11:18.507Z,3.00
2019-01-26T01:13:44.535Z,3.10
2019-01-26T01:16:10.617Z,3.10
2019-01-26T01:18:36.643Z,3.10
2019-01-26T01:21:02.736Z,3.10
2019-01-26T01:23:28.796Z,3.10
2019-01-26T01:25:54.815Z,3.10
2019-01-26T01:28:20.923Z,3.10
2019-01-26T01:30:46.927Z,3.10
2019-01-26T01:33:13.233Z,3.10
2019-01-26T01:35:39.362Z,3.10
2019-01-26T01:38:05.401Z,3.20
2019-01-26T01:40:31.463Z,3.30
2019-01-26T01:42:57.474Z,3.30
2019-01-26T01:45:23.504Z,3.20
2019-01-26T01:47:49.554Z,3.20
2019-01-26T01:50:15.731Z,3.20
2019-01-26T01:52:41.767Z,3.30
2019-01-26T01:55:08.674Z,3.30
2019-01-26T01:57:34.683Z,3.30
2019-01-26T02:00:00.709Z,3.40
2019-01-26T02:02:26.719Z,3.40
2019-01-26T02:04:52.759Z,3.40
2019-01-26T02:07:18.758Z,3.40
2019-01-26T02:09:44.811Z,3.40
2019-01-26T02:12:10.820Z,3.40
2019-01-26T02:14:36.851Z,3.50
2019-01-26T02:17:02.863Z,3.50
2019-01-26T02:19:28.893Z,3.50
2019-01-26T02:21:54.900Z,3.50
2019-01-26T02:24:20.912Z,3.50
2019-01-26T02:26:46.939Z,3.50
2019-01-26T02:29:12.967Z,3.50
2019-01-26T02:31:39.028Z,3.40
2019-01-26T02:34:05.046Z,3.40
2019-01-26T02:36:31.056Z,3.40
2019-01-26T02:38:57.094Z,3.40
2019-01-26T02:41:23.099Z,3.40
2019-01-26T02:43:49.112Z,3.40
2019-01-26T02:46:15.142Z,3.40
2019-01-26T02:48:41.143Z,3.40
2019-01-26T02:51:07.177Z,3.40
2019-01-26T02:53:33.183Z,3.50
2019-01-26T02:55:59.196Z,3.50
2019-01-26T02:58:25.219Z,3.50
2019-01-26T03:00:51.259Z,3.50
2019-01-26T03:03:17.281Z,3.50
2019-01-26T03:05:43.283Z,3.50
2019-01-26T03:08:09.309Z,3.50
2019-01-26T03:10:49.144Z,3.60
2019-01-26T03:13:15.235Z,3.60
2019-01-26T03:15:41.662Z,3.60
2019-01-26T03:18:07.779Z,3.60
2019-01-26T03:20:33.790Z,3.70
2019-01-26T03:22:59.811Z,3.70
2019-01-26T03:25:25.826Z,3.70
2019-01-26T03:27:51.852Z,3.80
2019-01-26T03:30:20.093Z,3.70
2019-01-26T03:32:46.222Z,3.70
2019-01-26T03:35:12.238Z,3.80
2019-01-26T03:37:38.314Z,3.90
2019-01-26T03:40:07.726Z,3.80
2019-01-26T03:42:33.758Z,3.80
2019-01-26T03:44:59.767Z,3.80
2019-01-26T03:47:25.827Z,3.80
2019-01-26T03:49:53.604Z,3.70
2019-01-26T03:52:19.764Z,3.70
2019-01-26T03:54:45.787Z,3.70
2019-01-26T03:57:11.799Z,3.70
2019-01-26T03:59:37.827Z,3.70
2019-01-26T04:02:03.841Z,3.60
2019-01-26T04:04:30.008Z,3.60
2019-01-26T04:06:56.102Z,3.60
2019-01-26T04:09:22.132Z,3.80
2019-01-26T04:11:48.154Z,3.70
2019-01-26T04:14:14.267Z,3.70
2019-01-26T04:16:40.312Z,3.70
2019-01-26T04:19:06.364Z,3.70
2019-01-26T04:21:32.400Z,3.60
2019-01-26T04:23:58.412Z,3.60
2019-01-26T04:26:24.454Z,3.60
2019-01-26T04:28:50.466Z,3.60
2019-01-26T04:31:16.479Z,3.60
2019-01-26T04:33:42.510Z,3.60
2019-01-26T04:36:08.531Z,3.60
2019-01-26T04:38:34.559Z,3.60
2019-01-26T04:41:00.647Z,3.60
2019-01-26T04:43:26.715Z,3.60
2019-01-26T04:45:52.728Z,3.50
2019-01-26T04:48:18.761Z,3.50
2019-01-26T04:50:44.766Z,3.50
2019-01-26T04:53:10.798Z,3.50
2019-01-26T04:55:36.810Z,3.50
2019-01-26T04:58:02.969Z,3.50
2019-01-26T05:00:29.003Z,3.50
2019-01-26T05:02:55.011Z,3.60
2019-01-26T05:05:21.157Z,3.60
2019-01-26T05:07:47.271Z,3.70
2019-01-26T05:10:18.244Z,3.80
2019-01-26T05:12:44.520Z,3.80
2019-01-26T05:15:12.072Z,3.90
2019-01-26T05:17:39.336Z,3.80
2019-01-26T05:20:09.452Z,3.80
2019-01-26T05:22:35.491Z,3.80
2019-01-26T05:25:01.500Z,3.70
2019-01-26T05:27:27.538Z,3.70
2019-01-26T05:29:53.544Z,3.60
2019-01-26T05:32:19.584Z,3.60
2019-01-26T05:34:45.590Z,3.60
2019-01-26T05:37:11.599Z,3.60
2019-01-26T05:39:37.628Z,3.60
2019-01-26T05:42:03.639Z,3.60
2019-01-26T05:44:29.672Z,3.60
2019-01-26T05:46:55.708Z,3.60
2019-01-26T05:49:21.724Z,3.60
2019-01-26T05:51:47.759Z,3.70
2019-01-26T05:54:13.775Z,3.70
2019-01-26T05:56:39.804Z,3.80
2019-01-26T05:59:05.821Z,3.70
2019-01-26T06:01:31.851Z,3.70
2019-01-26T06:03:57.888Z,3.70
2019-01-26T06:06:23.899Z,3.70
2019-01-26T06:08:49.927Z,3.70
2019-01-26T06:11:15.964Z,3.80
2019-01-26T06:13:42.011Z,3.80
2019-01-26T06:16:08.050Z,3.70
2019-01-26T06:18:34.923Z,3.70
2019-01-26T06:21:00.934Z,3.70
2019-01-26T06:23:26.962Z,3.70
2019-01-26T06:25:52.971Z,3.70
2019-01-26T06:28:18.999Z,3.70
2019-01-26T06:30:45.031Z,3.80
2019-01-26T06:33:11.038Z,3.80
2019-01-26T06:35:37.080Z,3.90
2019-01-26T06:38:03.123Z,3.90
2019-01-26T06:40:29.147Z,3.90
2019-01-26T06:42:55.167Z,3.90
2019-01-26T06:45:21.192Z,3.90
2019-01-26T06:47:47.203Z,4.00
2019-01-26T06:50:16.934Z,4.00
2019-01-26T06:52:42.955Z,4.10
2019-01-26T06:55:09.368Z,4.10
2019-01-26T06:57:35.447Z,4.10
2019-01-26T07:00:01.458Z,4.10
2019-01-26T07:02:27.533Z,4.20
2019-01-26T07:04:55.528Z,4.20
2019-01-26T07:07:21.572Z,4.30
2019-01-26T07:09:47.584Z,4.40
2019-01-26T07:12:13.765Z,4.40
2019-01-26T07:14:39.859Z,4.40
2019-01-26T07:17:05.886Z,4.50
2019-01-26T07:19:31.899Z,4.40
2019-01-26T07:21:58.067Z,4.50
2019-01-26T07:24:27.143Z,4.50
2019-01-26T07:26:53.225Z,4.50
2019-01-26T07:29:19.323Z,4.60
2019-01-26T07:31:45.618Z,4.60
2019-01-26T07:34:11.747Z,4.60
2019-01-26T07:36:37.788Z,4.60
2019-01-26T07:39:07.418Z,4.60
2019-01-26T07:41:33.451Z,4.70
2019-01-26T07:43:59.511Z,4.70
2019-01-26T07:46:25.518Z,4.80
2019-01-26T07:48:51.522Z,4.80
2019-01-26T07:51:17.688Z,4.80
2019-01-26T07:53:43.684Z,4.80
2019-01-26T07:56:09.863Z,4.70
2019-01-26T07:58:35.993Z,4.70
2019-01-26T08:01:02.019Z,4.70
2019-01-26T08:03:28.043Z,4.70
2019-01-26T08:06:14.032Z,4.80
2019-01-26T08:08:40.180Z,4.80
2019-01-26T08:11:06.278Z,4.80
2019-01-26T08:13:32.306Z,4.80
2019-01-26T08:15:58.483Z,4.90
2019-01-26T08:18:24.640Z,4.90
2019-01-26T08:20:50.655Z,4.90
2019-01-26T08:23:16.691Z,4.90
2019-01-26T08:25:42.731Z,4.90
2019-01-26T08:28:08.768Z,4.80
2019-01-26T08:30:34.803Z,4.70
2019-01-26T08:33:00.880Z,4.70
2019-01-26T08:35:26.891Z,4.70
2019-01-26T08:37:52.923Z,4.80
2019-01-26T08:40:20.134Z,4.80
2019-01-26T08:42:46.227Z,4.90
2019-01-26T08:45:13.322Z,5.00
2019-01-26T08:47:39.551Z,5.00
2019-01-26T08:50:11.443Z,4.90
2019-01-26T08:52:37.605Z,4.90
2019-01-26T08:55:06.607Z,5.00
2019-01-26T08:57:32.639Z,5.00
2019-01-26T08:59:58.655Z,5.00
2019-01-26T09:02:46.778Z,5.00
2019-01-26T09:05:13.887Z,5.00
2019-01-26T09:07:39.918Z,5.10
2019-01-26T09:10:06.251Z,5.00
2019-01-26T09:12:32.338Z,5.10
2019-01-26T09:14:58.379Z,5.20
2019-01-26T09:17:24.410Z,5.30
2019-01-26T09:19:50.448Z,5.30
2019-01-26T09:22:16.459Z,5.40
2019-01-26T09:24:42.487Z,5.50
2019-01-26T09:27:08.495Z,5.60
2019-01-26T09:29:34.506Z,5.60
2019-01-26T09:32:00.544Z,5.60
2019-01-26T09:34:26.555Z,5.50
2019-01-26T09:36:52.582Z,5.50
2019-01-26T09:39:18.657Z,5.50
2019-01-26T09:41:44.687Z,5.50
2019-01-26T09:44:10.694Z,5.50
2019-01-26T09:46:36.726Z,5.60
2019-01-26T09:49:02.743Z,5.70
2019-01-26T09:51:28.823Z,5.80
2019-01-26T09:53:54.832Z,5.70
2019-01-26T09:56:20.871Z,5.60
2019-01-26T09:58:46.882Z,5.50
2019-01-26T10:01:12.951Z,5.40
2019-01-26T10:03:38.987Z,5.40
2019-01-26T10:06:05.014Z,5.50
2019-01-26T10:08:31.055Z,5.50
2019-01-26T10:10:57.078Z,5.50
2019-01-26T10:13:23.103Z,5.60
2019-01-26T10:15:49.127Z,5.70
2019-01-26T10:18:15.351Z,5.80
2019-01-26T10:20:41.986Z,5.90
2019-01-26T10:23:08.003Z,6.00
2019-01-26T10:25:34.052Z,6.00
2019-01-26T10:28:00.060Z,6.00
2019-01-26T10:30:42.574Z,6.10
2019-01-26T10:33:08.630Z,6.10
2019-01-26T10:35:48.350Z,6.10
2019-01-26T10:38:14.359Z,6.00
2019-01-26T10:43:38.431Z,6.10
2019-01-26T10:46:04.484Z,6.10
2019-01-26T10:48:30.532Z,6.20
2019-01-26T10:50:56.558Z,6.10
2019-01-26T10:53:22.591Z,6.10
2019-01-26T10:55:48.604Z,6.10
2019-01-26T10:58:14.635Z,6.10
2019-01-26T11:00:40.695Z,6.10
2019-01-26T11:03:06.746Z,6.10
2019-01-26T11:05:32.759Z,6.00
2019-01-26T11:07:58.799Z,5.90
2019-01-26T11:10:24.834Z,5.80
2019-01-26T11:12:52.495Z,5.70
2019-01-26T11:15:18.582Z,5.60
2019-01-26T11:17:44.608Z,5.50
2019-01-26T11:20:12.743Z,5.50
2019-01-26T11:22:38.755Z,5.60
2019-01-26T11:25:08.291Z,5.60
2019-01-26T11:27:34.317Z,5.70
2019-01-26T11:30:00.327Z,5.80
2019-01-26T11:32:26.360Z,5.80
2019-01-26T11:34:52.388Z,5.90
2019-01-26T11:37:18.505Z,5.90
2019-01-26T11:39:46.527Z,5.90
2019-01-26T11:42:12.554Z,6.00
2019-01-26T11:44:40.499Z,6.00
2019-01-26T11:47:07.332Z,6.00
2019-01-26T11:49:54.867Z,6.10
2019-01-26T11:52:20.930Z,6.10
2019-01-26T11:54:48.915Z,6.00
2019-01-26T11:57:18.758Z,6.00
2019-01-26T11:59:46.736Z,5.90
2019-01-26T12:02:14.686Z,6.00
2019-01-26T12:04:42.795Z,6.10
2019-01-26T12:07:09.012Z,6.20
2019-01-26T12:09:35.409Z,6.40
2019-01-26T12:12:01.475Z,6.50
2019-01-26T12:14:27.504Z,6.50
2019-01-26T12:16:54.001Z,6.60
2019-01-26T12:19:22.501Z,6.70
2019-01-26T12:21:48.008Z,6.70
2019-01-26T12:24:15.067Z,6.80
2019-01-26T12:26:41.079Z,6.80
2019-01-26T12:29:07.115Z,6.80
2019-01-26T12:31:33.216Z,6.90
2019-01-26T12:33:59.252Z,7.00
2019-01-26T12:36:25.288Z,7.00
2019-01-26T12:38:51.295Z,7.10
2019-01-26T12:41:17.326Z,7.10
2019-01-26T12:43:43.343Z,7.10
2019-01-26T12:46:09.375Z,6.90
2019-01-26T12:48:35.459Z,6.80
2019-01-26T12:51:01.473Z,6.80
2019-01-26T12:53:27.489Z,6.80
2019-01-26T12:55:53.527Z,6.90
2019-01-26T12:58:19.539Z,6.90
2019-01-26T13:00:45.570Z,6.90
2019-01-26T13:03:11.593Z,6.80
2019-01-26T13:05:37.758Z,6.80
2019-01-26T13:08:03.791Z,6.90
2019-01-26T13:10:54.456Z,6.80
2019-01-26T13:13:20.487Z,6.70
2019-01-26T13:15:46.575Z,6.50
2019-01-26T13:18:12.657Z,6.50
2019-01-26T13:20:38.668Z,6.40
2019-01-26T13:23:05.040Z,6.50
2019-01-26T13:25:31.523Z,6.50
2019-01-26T13:27:59.803Z,6.50
2019-01-26T13:30:26.420Z,6.60
2019-01-26T13:32:53.080Z,6.60
2019-01-26T13:35:19.261Z,6.70
2019-01-26T13:37:45.398Z,6.70
2019-01-26T13:40:14.721Z,6.70
2019-01-26T13:42:40.756Z,6.60
2019-01-26T13:45:09.971Z,6.60
2019-01-26T13:47:37.941Z,6.50
2019-01-26T13:50:05.087Z,6.60
2019-01-26T13:52:31.091Z,6.60
2019-01-26T13:54:57.179Z,6.60
2019-01-26T13:57:23.555Z,6.50
2019-01-26T13:59:49.664Z,6.40
2019-01-26T14:02:15.731Z,6.30
2019-01-26T14:04:41.855Z,6.20
2019-01-26T14:07:08.337Z,6.20
2019-01-26T14:09:36.073Z,6.10
2019-01-26T14:12:02.136Z,6.20
2019-01-26T14:14:28.251Z,6.10
2019-01-26T14:16:54.311Z,6.00
2019-01-26T14:19:20.336Z,5.90
2019-01-26T14:21:46.399Z,6.00
2019-01-26T14:24:12.420Z,6.10
2019-01-26T14:26:38.567Z,6.10
2019-01-26T14:29:04.603Z,6.20
2019-01-26T14:31:30.619Z,6.30
2019-01-26T14:33:57.719Z,6.30
2019-01-26T14:36:23.728Z,6.20
2019-01-26T14:38:49.768Z,6.20
2019-01-26T14:41:15.783Z,6.20
2019-01-26T14:43:41.917Z,6.20
2019-01-26T14:46:07.930Z,6.10
2019-01-26T14:48:33.942Z,6.10
2019-01-26T14:50:59.999Z,6.10
2019-01-26T14:53:26.231Z,6.10
2019-01-26T14:55:52.314Z,6.10
2019-01-26T14:58:19.456Z,6.10
2019-01-26T15:00:45.490Z,6.10
2019-01-26T15:03:11.507Z,6.20
2019-01-26T15:05:37.539Z,6.30
2019-01-26T15:08:03.568Z,6.30
2019-01-26T15:10:29.608Z,6.30
2019-01-26T15:12:55.614Z,6.20
2019-01-26T15:15:21.658Z,6.30
2019-01-26T15:17:47.670Z,6.30
2019-01-26T15:20:20.280Z,6.30
2019-01-26T15:22:46.295Z,6.30
2019-01-26T15:25:12.364Z,6.40
2019-01-26T15:27:38.375Z,6.50
2019-01-26T15:30:14.029Z,6.50
2019-01-26T15:32:40.063Z,6.50
2019-01-26T15:35:06.072Z,6.50
2019-01-26T15:37:32.102Z,6.50
2019-01-26T15:39:58.215Z,6.40
2019-01-26T15:42:24.347Z,6.40
2019-01-26T15:44:50.545Z,6.30
2019-01-26T15:47:16.560Z,6.30
2019-01-26T15:49:42.592Z,6.30
2019-01-26T15:52:08.598Z,6.20
2019-01-26T15:54:34.659Z,6.20
2019-01-26T15:57:00.666Z,6.20
2019-01-26T15:59:26.683Z,6.20
2019-01-26T16:01:52.710Z,6.20
2019-01-26T16:04:18.831Z,6.20
2019-01-26T16:06:44.979Z,6.20
2019-01-26T16:09:11.000Z,6.30
2019-01-26T16:11:37.011Z,6.30
2019-01-26T16:14:03.047Z,6.30
2019-01-26T16:16:29.060Z,6.40
2019-01-26T16:18:55.095Z,6.40
2019-01-26T16:21:21.112Z,6.30
2019-01-26T16:23:47.149Z,6.40
2019-01-26T16:26:13.183Z,6.40
2019-01-26T16:28:39.207Z,6.30
2019-01-26T16:31:05.219Z,6.40
2019-01-26T16:33:31.304Z,6.40
2019-01-26T16:35:58.328Z,6.30
2019-01-26T16:38:24.439Z,6.30
2019-01-26T16:41:00.795Z,6.40
2019-01-26T16:43:27.331Z,6.40
2019-01-26T16:45:53.432Z,6.40
2019-01-26T16:48:20.908Z,6.40
2019-01-26T16:50:46.964Z,6.50
2019-01-26T16:53:12.975Z,6.50
2019-01-26T16:55:40.167Z,6.40
2019-01-26T16:58:06.214Z,6.40
2019-01-26T17:00:36.427Z,6.30
2019-01-26T17:03:02.612Z,6.40
2019-01-26T17:05:28.659Z,6.40
2019-01-26T17:07:54.677Z,6.40
2019-01-26T17:10:20.710Z,6.40
2019-01-26T17:12:46.726Z,6.40
2019-01-26T17:15:12.768Z,6.40
2019-01-26T17:17:38.784Z,6.40
2019-01-26T17:20:14.270Z,6.30
2019-01-26T17:22:40.280Z,6.10
2019-01-26T17:25:06.315Z,6.10
2019-01-26T17:27:32.326Z,6.10
2019-01-26T17:29:58.375Z,6.10
2019-01-26T17:32:24.475Z,6.10
2019-01-26T17:34:50.490Z,6.10
2019-01-26T17:37:16.528Z,6.10
2019-01-26T17:39:42.579Z,6.20
2019-01-26T17:42:08.591Z,6.20
2019-01-26T17:44:34.676Z,6.20
2019-01-26T17:47:00.706Z,6.20
2019-01-26T17:49:26.745Z,6.10
2019-01-26T17:51:52.863Z,5.90
2019-01-26T17:54:18.875Z,5.90
2019-01-26T17:56:44.911Z,5.90
2019-01-26T17:59:10.918Z,5.90
2019-01-26T18:01:37.047Z,6.00
2019-01-26T18:04:03.080Z,6.00
2019-01-26T18:06:29.085Z,6.00
2019-01-26T18:08:55.112Z,6.00
2019-01-26T18:11:21.243Z,6.00
2019-01-26T18:13:47.283Z,6.00
2019-01-26T18:16:13.371Z,6.00
2019-01-26T18:18:42.486Z,6.00
2019-01-26T18:21:08.523Z,5.90
2019-01-26T18:23:34.735Z,5.90
2019-01-26T18:26:00.972Z,5.90
2019-01-26T18:28:27.008Z,5.90
2019-01-26T18:30:53.023Z,5.80
2019-01-26T18:33:19.066Z,5.80
2019-01-26T18:35:45.078Z,5.80
2019-01-26T18:38:11.110Z,5.70
2019-01-26T18:40:37.182Z,5.70
2019-01-26T18:43:03.233Z,5.80
2019-01-26T18:45:30.542Z,5.70
2019-01-26T18:47:56.602Z,5.70
2019-01-26T18:50:44.411Z,5.70
2019-01-26T18:53:10.428Z,5.70
2019-01-26T18:55:36.467Z,5.60
2019-01-26T18:58:02.583Z,5.70
2019-01-26T19:00:31.807Z,5.70
2019-01-26T19:03:19.627Z,5.80
2019-01-26T19:05:45.727Z,5.70
2019-01-26T19:08:11.743Z,5.70
2019-01-26T19:10:37.779Z,5.70
2019-01-26T19:13:03.790Z,5.70
2019-01-26T19:15:29.922Z,5.80
2019-01-26T19:17:55.935Z,5.80
2019-01-26T19:20:21.961Z,5.80
2019-01-26T19:22:48.079Z,5.70
2019-01-26T19:25:17.959Z,5.70
2019-01-26T19:27:44.008Z,5.80
2019-01-26T19:30:16.414Z,5.80
2019-01-26T19:32:42.450Z,5.80
2019-01-26T19:35:09.170Z,5.80
2019-01-26T19:37:35.263Z,5.80
2019-01-26T19:40:01.658Z,5.80
2019-01-26T19:42:27.663Z,5.70
2019-01-26T19:44:53.727Z,5.70
2019-01-26T19:47:19.851Z,5.70
2019-01-26T19:49:45.901Z,5.70
2019-01-26T19:52:11.911Z,5.70
2019-01-26T19:54:37.919Z,5.80
2019-01-26T19:57:03.946Z,5.80
2019-01-26T19:59:29.964Z,5.80
2019-01-26T20:01:55.995Z,5.80
2019-01-26T20:04:22.012Z,5.80
2019-01-26T20:06:48.447Z,5.80
2019-01-26T20:09:14.975Z,5.80
2019-01-26T20:11:41.048Z,5.80
2019-01-26T20:14:07.051Z,5.80
2019-01-26T20:16:36.514Z,5.80
2019-01-26T20:19:01.011Z,5.80
2019-01-26T20:21:27.159Z,5.80
2019-01-26T20:23:53.183Z,5.80
2019-01-26T20:26:19.219Z,5.80
2019-01-26T20:28:45.230Z,5.90
2019-01-26T20:31:11.266Z,5.90
2019-01-26T20:33:37.317Z,6.00
2019-01-26T20:36:03.358Z,6.00
2019-01-26T20:38:29.391Z,6.00
2019-01-26T20:40:55.431Z,6.00
2019-01-26T20:43:21.443Z,6.00
2019-01-26T20:45:47.474Z,6.00
2019-01-26T20:48:13.943Z,6.00
2019-01-26T20:50:39.951Z,6.10
2019-01-26T20:53:05.981Z,6.00
2019-01-26T20:55:31.995Z,6.00
2019-01-26T20:57:57.999Z,5.90
2019-01-26T21:00:27.155Z,6.00
2019-01-26T21:02:53.167Z,6.00
2019-01-26T21:05:19.303Z,6.00
2019-01-26T21:07:45.319Z,6.00
2019-01-26T21:10:16.848Z,6.00
2019-01-26T21:12:42.899Z,6.00
2019-01-26T21:15:09.293Z,6.10
2019-01-26T21:17:37.874Z,6.10
2019-01-26T21:20:10.589Z,6.10
2019-01-26T21:22:36.965Z,6.00
2019-01-26T21:25:06.667Z,6.00
2019-01-26T21:27:33.298Z,6.00
2019-01-26T21:29:59.619Z,6.10
2019-01-26T21:32:25.737Z,6.10
2019-01-26T21:34:51.747Z,6.10
2019-01-26T21:37:17.838Z,6.20
2019-01-26T21:39:43.871Z,6.10
2019-01-26T21:42:09.915Z,6.20
2019-01-26T21:44:35.931Z,6.20
2019-01-26T21:47:01.963Z,6.20
2019-01-26T21:49:27.979Z,6.20
2019-01-26T21:51:54.015Z,6.20
2019-01-26T21:54:20.059Z,6.30
2019-01-26T21:56:46.067Z,6.20
2019-01-26T21:59:12.099Z,6.20
2019-01-26T22:01:38.111Z,6.30
2019-01-26T22:04:04.147Z,6.30
2019-01-26T22:06:30.171Z,6.30
2019-01-26T22:08:56.220Z,6.30
2019-01-26T22:11:22.228Z,6.30
2019-01-26T22:13:48.230Z,6.30
2019-01-26T22:16:14.319Z,6.30
2019-01-26T22:18:40.336Z,6.30
2019-01-26T22:21:06.380Z,6.40
2019-01-26T22:23:32.389Z,6.30
2019-01-26T22:25:58.419Z,6.30
2019-01-26T22:28:24.432Z,6.30
2019-01-26T22:30:50.463Z,6.40
2019-01-26T22:33:16.498Z,6.40
2019-01-26T22:35:42.507Z,6.50
2019-01-26T22:38:08.527Z,6.50
2019-01-26T22:40:34.761Z,6.50
2019-01-26T22:43:00.832Z,6.50
2019-01-26T22:45:26.962Z,6.50
2019-01-26T22:47:52.976Z,6.50
2019-01-26T22:50:21.295Z,6.50
2019-01-26T22:52:47.331Z,6.50
2019-01-26T22:55:17.796Z,6.50
2019-01-26T22:57:43.823Z,6.60
2019-01-26T23:00:50.780Z,6.60
2019-01-26T23:03:20.027Z,6.60
2019-01-26T23:06:06.483Z,6.60
2019-01-26T23:08:33.714Z,6.60
2019-01-26T23:11:11.912Z,6.60
2019-01-26T23:13:40.139Z,6.60
2019-01-26T23:16:29.343Z,6.50
2019-01-26T23:19:11.528Z,6.60
2019-01-26T23:22:02.523Z,6.60
2019-01-26T23:24:37.959Z,6.60
2019-01-26T23:27:20.175Z,6.60
2019-01-26T23:30:12.660Z,6.60
2019-01-26T23:32:38.686Z,6.60
2019-01-26T23:35:26.480Z,6.70
2019-01-26T23:37:52.520Z,6.60
2019-01-26T23:40:18.534Z,6.70
2019-01-26T23:42:44.632Z,6.60
2019-01-26T23:45:10.659Z,6.60
2019-01-26T23:47:36.690Z,6.60
2019-01-26T23:50:04.627Z,6.60
2019-01-26T23:52:30.659Z,6.60
2019-01-26T23:54:56.671Z,6.60
2019-01-26T23:57:22.819Z,6.60
2019-01-26T23:59:48.846Z,6.60
